createdAt,value
2018-06-24T00:00:40.759Z,5.7
2018-06-24T00:01:41.553Z,6.3
2018-06-24T00:02:42.368Z,6.6
2018-06-24T00:03:43.122Z,7.0
2018-06-24T00:04:43.903Z,7.0
2018-06-24T00:05:44.872Z,6.3
2018-06-24T00:06:45.841Z,6.5
2018-06-24T00:07:47.036Z,6.1
2018-06-24T00:08:48.030Z,7.1
2018-06-24T00:09:49.028Z,6.5
2018-06-24T00:10:49.828Z,7.4
2018-06-24T00:11:50.591Z,6.5
2018-06-24T00:12:51.617Z,6.5
2018-06-24T00:13:52.419Z,6.8
2018-06-24T00:14:53.161Z,7.5
2018-06-24T00:15:54.146Z,7.4
2018-06-24T00:16:55.098Z,7.3
2018-06-24T00:17:56.069Z,8.6
2018-06-24T00:18:57.302Z,6.8
2018-06-24T00:19:58.293Z,6.8
2018-06-24T00:20:59.274Z,7.0
2018-06-24T00:22:00.062Z,7.3
2018-06-24T00:23:00.836Z,7.3
2018-06-24T00:24:01.833Z,6.9
2018-06-24T00:25:02.622Z,7.6
2018-06-24T00:26:03.408Z,7.3
2018-06-24T00:27:04.206Z,7.0
2018-06-24T00:28:05.228Z,7.6
2018-06-24T00:29:06.202Z,6.9
2018-06-24T00:30:07.417Z,6.9
2018-06-24T00:31:08.629Z,6.9
2018-06-24T00:32:09.853Z,7.5
2018-06-24T00:33:10.841Z,7.7
2018-06-24T00:34:11.809Z,7.7
2018-06-24T00:35:12.630Z,8.5
2018-06-24T00:36:13.368Z,7.6
2018-06-24T00:37:14.150Z,7.7
2018-06-24T00:38:14.914Z,8.0
2018-06-24T00:39:15.908Z,7.9
2018-06-24T00:40:16.717Z,7.7
2018-06-24T00:41:17.484Z,7.3
2018-06-24T00:42:18.277Z,7.8
2018-06-24T00:43:19.230Z,8.2
2018-06-24T00:44:19.981Z,7.6
2018-06-24T00:45:21.000Z,7.6
2018-06-24T00:46:21.794Z,8.1
2018-06-24T00:47:22.567Z,8.1
2018-06-24T00:48:23.338Z,8.1
2018-06-24T00:49:24.318Z,8.1
2018-06-24T00:50:25.575Z,8.4
2018-06-24T00:51:26.344Z,8.3
2018-06-24T00:52:27.626Z,7.7
2018-06-24T00:53:28.387Z,9.1
2018-06-24T00:54:29.408Z,8.1
2018-06-24T00:55:30.820Z,7.4
2018-06-24T00:56:31.774Z,8.1
2018-06-24T00:57:33.001Z,8.1
2018-06-24T00:58:33.975Z,7.3
2018-06-24T00:59:34.978Z,7.6
2018-06-24T01:00:35.803Z,9.9
2018-06-24T01:01:36.806Z,10.1
2018-06-24T01:02:37.581Z,8.7
2018-06-24T01:03:38.799Z,9.0
2018-06-24T01:04:39.622Z,8.4
2018-06-24T01:05:40.596Z,8.2
2018-06-24T01:06:41.360Z,8.3
2018-06-24T01:07:42.322Z,9.2
2018-06-24T01:08:43.305Z,9.7
2018-06-24T01:09:44.331Z,8.8
2018-06-24T01:10:45.312Z,8.7
2018-06-24T01:11:46.099Z,8.2
2018-06-24T01:12:47.072Z,8.6
2018-06-24T01:13:47.852Z,8.6
2018-06-24T01:14:48.625Z,9.2
2018-06-24T01:15:49.399Z,8.6
2018-06-24T01:16:50.178Z,8.8
2018-06-24T01:17:51.221Z,8.3
2018-06-24T01:18:51.992Z,9.3
2018-06-24T01:19:52.742Z,9.3
2018-06-24T01:20:53.503Z,8.6
2018-06-24T01:21:54.496Z,9.0
2018-06-24T01:22:55.460Z,8.5
2018-06-24T01:23:56.440Z,9.1
2018-06-24T01:24:57.414Z,8.9
2018-06-24T01:25:58.388Z,9.0
2018-06-24T01:26:59.377Z,8.4
2018-06-24T01:28:00.157Z,9.1
2018-06-24T01:29:00.891Z,8.4
2018-06-24T01:30:01.695Z,9.6
2018-06-24T01:31:02.460Z,8.8
2018-06-24T01:32:03.242Z,9.3
2018-06-24T01:33:04.029Z,9.1
2018-06-24T01:34:04.801Z,9.7
2018-06-24T01:35:05.780Z,8.6
2018-06-24T01:36:06.755Z,10.3
2018-06-24T01:37:07.736Z,8.9
2018-06-24T01:38:08.738Z,9.4
2018-06-24T01:39:09.719Z,9.0
2018-06-24T01:40:10.696Z,8.9
2018-06-24T01:41:11.993Z,9.0
2018-06-24T01:42:12.779Z,9.3
2018-06-24T01:43:13.576Z,9.6
2018-06-24T01:44:14.361Z,9.4
2018-06-24T01:45:15.131Z,9.4
2018-06-24T01:46:15.950Z,8.7
2018-06-24T01:47:16.741Z,9.2
2018-06-24T01:48:17.544Z,9.4
2018-06-24T01:49:18.526Z,10.3
2018-06-24T01:50:19.520Z,10.9
2018-06-24T01:51:20.524Z,10.8
2018-06-24T01:52:21.300Z,10.8
2018-06-24T01:53:22.072Z,11.3
2018-06-24T01:54:23.100Z,10.6
2018-06-24T01:55:23.885Z,9.9
2018-06-24T01:56:24.812Z,9.8
2018-06-24T01:57:25.849Z,10.6
2018-06-24T01:58:26.829Z,10.6
2018-06-24T01:59:27.622Z,9.4
2018-06-24T02:00:28.385Z,10.7
2018-06-24T02:01:29.201Z,10.6
2018-06-24T02:02:30.188Z,10.1
2018-06-24T02:03:31.170Z,11.8
2018-06-24T02:04:32.143Z,10.9
2018-06-24T02:05:33.200Z,11.1
2018-06-24T02:06:33.953Z,11.4
2018-06-24T02:07:34.734Z,11.6
2018-06-24T02:08:35.551Z,10.5
2018-06-24T02:09:36.337Z,11.2
2018-06-24T02:10:37.124Z,11.6
2018-06-24T02:11:37.889Z,11.1
2018-06-24T02:12:38.650Z,11.6
2018-06-24T02:14:54.928Z,11.0
2018-06-24T02:15:55.776Z,10.4
2018-06-24T02:16:56.536Z,10.6
2018-06-24T02:17:57.316Z,11.0
2018-06-24T02:18:58.092Z,11.0
2018-06-24T02:19:58.949Z,10.7
2018-06-24T02:20:59.715Z,11.7
2018-06-24T02:22:00.704Z,11.1
2018-06-24T02:23:01.696Z,10.5
2018-06-24T02:24:02.682Z,10.8
2018-06-24T02:25:03.710Z,10.7
2018-06-24T02:26:05.134Z,10.7
2018-06-24T02:27:05.935Z,11.6
2018-06-24T02:28:06.721Z,10.9
2018-06-24T02:29:07.488Z,9.8
2018-06-24T02:30:08.479Z,10.6
2018-06-24T02:31:09.689Z,11.3
2018-06-24T02:32:10.692Z,10.5
2018-06-24T02:33:11.460Z,11.2
2018-06-24T02:34:12.435Z,11.0
2018-06-24T02:35:13.412Z,10.7
2018-06-24T02:36:14.441Z,10.8
2018-06-24T02:37:15.432Z,11.1
2018-06-24T02:38:16.856Z,10.5
2018-06-24T02:39:17.850Z,10.1
2018-06-24T02:40:18.644Z,10.7
2018-06-24T02:41:19.422Z,11.6
2018-06-24T02:42:20.205Z,11.4
2018-06-24T02:43:20.978Z,10.3
2018-06-24T02:44:21.766Z,9.9
2018-06-24T02:45:22.526Z,10.5
2018-06-24T02:46:23.763Z,9.6
2018-06-24T02:47:25.054Z,9.7
2018-06-24T02:48:26.045Z,10.1
2018-06-24T02:49:26.847Z,10.9
2018-06-24T02:50:27.637Z,9.9
2018-06-24T02:51:28.624Z,9.8
2018-06-24T02:52:29.386Z,10.1
2018-06-24T02:53:30.442Z,9.7
2018-06-24T02:54:31.359Z,9.7
2018-06-24T02:55:32.357Z,9.6
2018-06-24T02:56:33.342Z,9.7
2018-06-24T02:57:34.158Z,10.0
2018-06-24T02:58:35.121Z,10.1
2018-06-24T02:59:36.108Z,10.1
2018-06-24T03:00:37.085Z,9.7
2018-06-24T03:01:37.877Z,10.1
2018-06-24T03:02:38.899Z,10.1
2018-06-24T03:03:39.892Z,9.8
2018-06-24T03:04:40.914Z,9.3
2018-06-24T03:05:41.682Z,10.2
2018-06-24T03:06:42.703Z,9.5
2018-06-24T03:07:43.489Z,9.5
2018-06-24T03:08:44.262Z,9.3
2018-06-24T03:09:45.009Z,10.4
2018-06-24T03:10:45.806Z,8.9
2018-06-24T03:11:46.800Z,10.3
2018-06-24T03:12:47.814Z,9.7
2018-06-24T03:13:48.794Z,9.9
2018-06-24T03:14:49.777Z,9.8
2018-06-24T03:15:50.757Z,9.8
2018-06-24T03:16:51.749Z,9.9
2018-06-24T03:17:52.596Z,9.2
2018-06-24T03:18:53.302Z,9.7
2018-06-24T03:19:54.071Z,9.6
2018-06-24T03:20:55.091Z,10.2
2018-06-24T03:21:55.870Z,10.0
2018-06-24T03:22:56.684Z,10.5
2018-06-24T03:23:57.437Z,10.4
2018-06-24T03:24:58.232Z,10.5
2018-06-24T03:25:59.202Z,10.7
2018-06-24T03:26:59.973Z,9.9
2018-06-24T03:28:00.961Z,10.2
2018-06-24T03:29:02.075Z,9.5
2018-06-24T03:30:03.061Z,9.7
2018-06-24T03:31:04.043Z,10.2
2018-06-24T03:32:05.068Z,8.9
2018-06-24T03:33:05.855Z,9.2
2018-06-24T03:34:06.679Z,9.7
2018-06-24T03:35:07.446Z,9.8
2018-06-24T03:36:08.470Z,10.7
2018-06-24T03:37:09.488Z,9.9
2018-06-24T03:38:10.473Z,9.6
2018-06-24T03:39:11.496Z,10.0
2018-06-24T03:40:12.484Z,10.0
2018-06-24T03:41:13.464Z,9.6
2018-06-24T03:42:14.448Z,10.1
2018-06-24T03:43:15.426Z,10.8
2018-06-24T03:44:16.409Z,9.5
2018-06-24T03:45:17.184Z,9.6
2018-06-24T03:46:17.972Z,9.6
2018-06-24T03:47:18.750Z,9.8
2018-06-24T03:48:19.536Z,9.9
2018-06-24T03:49:20.333Z,10.2
2018-06-24T03:50:21.106Z,9.7
2018-06-24T03:51:21.870Z,9.4
2018-06-24T03:52:22.637Z,9.8
2018-06-24T03:53:23.607Z,10.2
2018-06-24T03:54:24.599Z,10.4
2018-06-24T03:55:25.623Z,10.0
2018-06-24T03:56:26.613Z,10.1
2018-06-24T03:57:27.600Z,9.9
2018-06-24T03:58:28.568Z,9.4
2018-06-24T03:59:29.358Z,10.7
2018-06-24T04:00:30.550Z,10.4
2018-06-24T04:01:31.533Z,10.1
2018-06-24T04:02:32.553Z,9.4
2018-06-24T04:03:33.535Z,9.9
2018-06-24T04:04:34.519Z,10.2
2018-06-24T04:05:35.292Z,10.9
2018-06-24T04:06:36.288Z,10.9
2018-06-24T04:07:37.053Z,9.0
2018-06-24T04:08:37.847Z,9.9
2018-06-24T04:09:38.859Z,10.3
2018-06-24T04:10:39.842Z,8.9
2018-06-24T04:11:40.635Z,9.3
2018-06-24T04:12:41.463Z,9.2
2018-06-24T04:13:42.490Z,9.1
2018-06-24T04:14:43.282Z,8.6
2018-06-24T04:15:44.093Z,9.4
2018-06-24T04:16:44.876Z,9.5
2018-06-24T04:17:45.903Z,8.3
2018-06-24T04:18:46.897Z,9.5
2018-06-24T04:19:47.886Z,9.1
2018-06-24T04:20:48.884Z,9.0
2018-06-24T04:21:49.657Z,9.0
2018-06-24T04:22:51.181Z,9.1
2018-06-24T04:23:51.953Z,9.2
2018-06-24T04:24:52.738Z,9.0
2018-06-24T04:25:53.524Z,8.5
2018-06-24T04:26:54.307Z,9.1
2018-06-24T04:27:55.378Z,9.3
2018-06-24T04:28:56.195Z,8.0
2018-06-24T04:29:57.177Z,8.7
2018-06-24T04:30:58.163Z,8.9
2018-06-24T04:31:59.149Z,9.1
2018-06-24T04:33:00.134Z,8.3
2018-06-24T04:34:01.126Z,8.0
2018-06-24T04:35:02.138Z,8.3
2018-06-24T04:36:02.919Z,8.1
2018-06-24T04:37:03.696Z,7.4
2018-06-24T04:38:04.485Z,8.2
2018-06-24T04:39:05.263Z,7.6
2018-06-24T04:40:06.044Z,7.4
2018-06-24T04:41:07.095Z,7.3
2018-06-24T04:42:08.095Z,7.5
2018-06-24T04:43:09.085Z,7.5
2018-06-24T04:44:10.081Z,6.9
2018-06-24T04:45:10.869Z,7.6
2018-06-24T04:46:11.892Z,7.1
2018-06-24T04:47:12.876Z,7.1
2018-06-24T04:48:13.891Z,7.0
2018-06-24T04:49:14.681Z,7.1
2018-06-24T04:50:15.461Z,6.6
2018-06-24T04:51:16.799Z,6.9
2018-06-24T04:52:17.561Z,6.1
2018-06-24T04:53:18.365Z,6.7
2018-06-24T04:54:19.991Z,7.2
2018-06-24T04:55:20.764Z,6.9
2018-06-24T04:56:21.788Z,6.5
2018-06-24T04:57:22.771Z,6.2
2018-06-24T04:58:23.745Z,6.9
2018-06-24T04:59:24.716Z,5.6
2018-06-24T05:00:25.701Z,6.1
2018-06-24T05:01:26.515Z,5.9
2018-06-24T05:02:27.313Z,5.9
2018-06-24T05:03:28.600Z,6.0
2018-06-24T05:04:29.581Z,6.0
2018-06-24T05:05:30.579Z,5.9
2018-06-24T05:06:31.637Z,6.1
2018-06-24T05:07:32.534Z,6.2
2018-06-24T05:08:33.568Z,5.7
2018-06-24T05:09:34.542Z,6.0
2018-06-24T05:10:35.325Z,5.8
2018-06-24T05:11:36.114Z,5.4
2018-06-24T05:12:36.945Z,6.0
2018-06-24T05:13:37.719Z,5.4
2018-06-24T05:14:38.535Z,5.5
2018-06-24T05:15:39.330Z,5.5
2018-06-24T05:16:40.108Z,6.4
2018-06-24T05:17:40.907Z,6.0
2018-06-24T05:18:41.695Z,6.2
2018-06-24T05:19:42.451Z,5.6
2018-06-24T05:20:43.273Z,4.9
2018-06-24T05:21:44.266Z,4.4
2018-06-24T05:22:45.039Z,4.0
2018-06-24T05:23:46.041Z,3.9
2018-06-24T05:24:46.834Z,4.1
2018-06-24T05:25:47.811Z,4.4
2018-06-24T05:26:48.811Z,3.8
2018-06-24T05:27:49.590Z,3.5
2018-06-24T05:28:50.403Z,3.6
2018-06-24T05:29:51.175Z,3.7
2018-06-24T05:30:52.166Z,3.2
2018-06-24T05:31:52.941Z,4.0
2018-06-24T05:32:53.926Z,3.2
2018-06-24T05:33:54.690Z,3.2
2018-06-24T05:34:55.675Z,3.2
2018-06-24T05:35:56.683Z,3.7
2018-06-24T05:36:57.654Z,3.2
2018-06-24T05:37:58.657Z,3.6
2018-06-24T05:38:59.443Z,3.6
2018-06-24T05:40:00.224Z,3.3
2018-06-24T05:41:01.017Z,3.4
2018-06-24T05:42:01.810Z,3.1
2018-06-24T05:43:02.792Z,3.0
2018-06-24T05:44:03.583Z,3.9
2018-06-24T05:45:04.364Z,3.7
2018-06-24T05:46:05.147Z,3.3
2018-06-24T05:47:05.931Z,3.3
2018-06-24T05:48:06.929Z,4.2
2018-06-24T05:49:08.154Z,3.6
2018-06-24T05:50:09.150Z,3.5
2018-06-24T05:51:10.139Z,3.5
2018-06-24T05:52:10.908Z,4.1
2018-06-24T05:53:11.783Z,3.7
2018-06-24T05:54:12.626Z,3.7
2018-06-24T05:55:13.424Z,3.9
2018-06-24T05:56:14.200Z,3.7
2018-06-24T05:57:15.000Z,4.5
2018-06-24T05:58:15.991Z,4.4
2018-06-24T05:59:16.770Z,3.9
2018-06-24T06:00:17.586Z,4.4
2018-06-24T06:01:18.592Z,4.1
2018-06-24T06:02:19.586Z,3.8
2018-06-24T06:03:20.374Z,3.5
2018-06-24T06:04:21.168Z,3.5
2018-06-24T06:05:21.998Z,4.4
2018-06-24T06:06:22.794Z,4.1
2018-06-24T06:07:23.574Z,4.0
2018-06-24T06:08:24.374Z,4.7
2018-06-24T06:09:25.150Z,4.6
2018-06-24T06:10:26.300Z,3.9
2018-06-24T06:11:27.129Z,4.5
2018-06-24T06:12:27.919Z,4.0
2018-06-24T06:13:28.701Z,4.6
2018-06-24T06:14:29.686Z,4.6
2018-06-24T06:15:30.717Z,4.8
2018-06-24T06:16:31.698Z,4.5
2018-06-24T06:17:32.672Z,4.5
2018-06-24T06:18:33.655Z,4.2
2018-06-24T06:19:34.655Z,4.4
2018-06-24T06:20:35.457Z,4.2
2018-06-24T06:21:36.231Z,4.8
2018-06-24T06:22:37.016Z,4.6
2018-06-24T06:23:37.808Z,4.2
2018-06-24T06:24:39.208Z,4.4
2018-06-24T06:25:40.505Z,4.2
2018-06-24T06:26:41.288Z,3.5
2018-06-24T06:27:42.283Z,4.0
2018-06-24T06:28:43.516Z,4.2
2018-06-24T06:29:44.509Z,3.9
2018-06-24T06:30:45.474Z,3.9
2018-06-24T06:31:46.448Z,4.8
2018-06-24T06:32:47.431Z,3.7
2018-06-24T06:33:48.239Z,4.4
2018-06-24T06:34:49.256Z,3.6
2018-06-24T06:35:50.043Z,4.4
2018-06-24T06:36:50.845Z,4.3
2018-06-24T06:37:51.620Z,4.3
2018-06-24T06:38:52.404Z,3.7
2018-06-24T06:39:53.168Z,4.0
2018-06-24T06:40:54.209Z,3.8
2018-06-24T06:41:55.197Z,3.9
2018-06-24T06:42:56.176Z,4.3
2018-06-24T06:43:57.161Z,3.5
2018-06-24T06:44:58.220Z,4.7
2018-06-24T06:45:58.927Z,4.3
2018-06-24T06:46:59.771Z,5.0
2018-06-24T06:48:00.564Z,5.0
2018-06-24T06:49:01.367Z,4.2
2018-06-24T06:50:02.407Z,4.8
2018-06-24T06:51:03.497Z,4.0
2018-06-24T06:52:04.230Z,4.5
2018-06-24T06:53:05.007Z,4.2
2018-06-24T06:54:06.012Z,4.4
2018-06-24T06:55:07.006Z,4.0
2018-06-24T06:56:07.993Z,4.6
2018-06-24T06:57:09.027Z,4.3
2018-06-24T06:58:10.254Z,4.9
2018-06-24T06:59:11.241Z,5.2
2018-06-24T07:00:12.056Z,5.2
2018-06-24T07:01:12.809Z,5.0
2018-06-24T07:02:13.574Z,4.2
2018-06-24T07:03:14.456Z,5.2
2018-06-24T07:04:15.189Z,4.9
2018-06-24T07:05:15.978Z,4.9
2018-06-24T07:06:16.782Z,4.8
2018-06-24T07:07:17.771Z,5.1
2018-06-24T07:08:18.598Z,4.7
2018-06-24T07:09:19.583Z,4.8
2018-06-24T07:10:20.369Z,5.1
2018-06-24T07:11:21.156Z,5.5
2018-06-24T07:12:21.939Z,4.1
2018-06-24T07:13:22.714Z,4.7
2018-06-24T07:14:23.514Z,4.7
2018-06-24T07:15:24.309Z,4.9
2018-06-24T07:16:25.109Z,4.5
2018-06-24T07:17:26.106Z,5.4
2018-06-24T07:18:26.888Z,5.1
2018-06-24T07:19:27.786Z,4.6
2018-06-24T07:20:28.508Z,5.0
2018-06-24T07:21:29.810Z,5.7
2018-06-24T07:22:30.801Z,5.1
2018-06-24T07:23:31.793Z,5.3
2018-06-24T07:24:32.813Z,5.2
2018-06-24T07:25:34.071Z,5.0
2018-06-24T07:26:34.843Z,4.9
2018-06-24T07:27:35.631Z,5.1
2018-06-24T07:28:36.415Z,4.4
2018-06-24T07:29:37.239Z,4.9
2018-06-24T07:30:38.025Z,4.6
2018-06-24T07:31:38.817Z,4.8
2018-06-24T07:32:39.595Z,4.6
2018-06-24T07:33:40.667Z,4.6
2018-06-24T07:34:42.108Z,5.5
2018-06-24T07:35:43.100Z,5.0
2018-06-24T07:36:44.130Z,5.5
2018-06-24T07:37:45.144Z,4.1
2018-06-24T07:38:45.934Z,4.8
2018-06-24T07:39:46.760Z,4.8
2018-06-24T07:40:47.545Z,5.0
2018-06-24T07:41:48.347Z,4.1
2018-06-24T07:42:49.137Z,4.5
2018-06-24T07:43:49.935Z,4.6
2018-06-24T07:44:51.173Z,4.0
2018-06-24T07:45:52.159Z,3.9
2018-06-24T07:46:53.136Z,5.0
2018-06-24T07:47:54.380Z,4.4
2018-06-24T07:48:55.362Z,4.2
2018-06-24T07:49:56.394Z,5.2
2018-06-24T07:50:57.380Z,3.7
2018-06-24T07:51:58.166Z,4.3
2018-06-24T07:52:58.954Z,3.8
2018-06-24T07:53:59.727Z,4.2
2018-06-24T07:55:01.055Z,4.6
2018-06-24T07:56:02.074Z,4.1
2018-06-24T07:57:02.847Z,4.2
2018-06-24T07:58:04.078Z,4.2
2018-06-24T07:59:05.081Z,4.2
2018-06-24T08:00:06.362Z,4.1
2018-06-24T08:01:07.524Z,3.9
2018-06-24T08:02:08.331Z,5.2
2018-06-24T08:03:09.199Z,4.1
2018-06-24T08:04:10.126Z,4.3
2018-06-24T08:05:10.994Z,4.1
2018-06-24T08:06:12.164Z,4.0
2018-06-24T08:07:13.154Z,4.5
2018-06-24T08:08:14.147Z,3.6
2018-06-24T08:09:15.152Z,3.9
2018-06-24T08:10:16.141Z,4.1
2018-06-24T08:11:17.174Z,4.0
2018-06-24T08:12:18.173Z,3.8
2018-06-24T08:14:34.889Z,3.7
2018-06-24T08:15:35.671Z,3.4
2018-06-24T08:16:36.645Z,3.4
2018-06-24T08:17:37.882Z,4.2
2018-06-24T08:18:38.876Z,3.7
2018-06-24T08:19:39.884Z,4.0
2018-06-24T08:20:40.686Z,3.6
2018-06-24T08:21:41.477Z,3.2
2018-06-24T08:22:42.345Z,3.9
2018-06-24T08:23:43.093Z,2.9
2018-06-24T08:24:43.898Z,3.1
2018-06-24T08:25:44.666Z,3.6
2018-06-24T08:26:45.434Z,3.9
2018-06-24T08:27:46.471Z,3.5
2018-06-24T08:28:47.465Z,3.7
2018-06-24T08:29:48.242Z,4.2
2018-06-24T08:30:49.213Z,3.3
2018-06-24T08:31:50.011Z,3.7
2018-06-24T08:32:51.041Z,3.2
2018-06-24T08:33:51.818Z,3.1
2018-06-24T08:34:52.590Z,3.3
2018-06-24T08:35:53.380Z,2.8
2018-06-24T08:36:54.159Z,3.6
2018-06-24T08:37:54.937Z,3.9
2018-06-24T08:38:55.792Z,3.1
2018-06-24T08:39:56.481Z,2.9
2018-06-24T08:40:57.302Z,3.7
2018-06-24T08:41:58.297Z,3.1
2018-06-24T08:42:59.287Z,3.0
2018-06-24T08:44:00.282Z,3.1
2018-06-24T08:45:01.261Z,3.1
2018-06-24T08:46:02.247Z,3.8
2018-06-24T08:47:03.272Z,3.3
2018-06-24T08:48:04.242Z,2.9
2018-06-24T08:49:05.225Z,3.3
2018-06-24T08:50:06.210Z,3.0
2018-06-24T08:51:07.183Z,3.0
2018-06-24T08:52:08.166Z,3.0
2018-06-24T08:53:09.133Z,2.7
2018-06-24T08:54:10.299Z,3.1
2018-06-24T08:55:11.294Z,2.9
2018-06-24T08:56:12.067Z,3.3
2018-06-24T08:57:13.239Z,2.9
2018-06-24T08:59:29.838Z,3.5
2018-06-24T09:00:31.117Z,3.1
2018-06-24T09:01:32.093Z,3.3
2018-06-24T09:02:33.109Z,4.0
2018-06-24T09:03:34.135Z,3.6
2018-06-24T09:04:34.947Z,4.1
2018-06-24T09:05:35.762Z,3.2
2018-06-24T09:06:36.542Z,3.0
2018-06-24T09:07:37.337Z,3.1
2018-06-24T09:08:38.388Z,3.5
2018-06-24T09:09:39.420Z,3.3
2018-06-24T09:10:40.298Z,2.7
2018-06-24T09:11:41.282Z,2.9
2018-06-24T09:12:42.263Z,3.2
2018-06-24T09:13:43.269Z,2.8
2018-06-24T09:14:44.314Z,3.3
2018-06-24T09:15:45.316Z,3.0
2018-06-24T09:16:46.284Z,3.1
2018-06-24T09:17:47.282Z,3.0
2018-06-24T09:18:48.068Z,2.9
2018-06-24T09:19:48.869Z,2.7
2018-06-24T09:20:49.673Z,2.8
2018-06-24T09:21:50.464Z,3.4
2018-06-24T09:22:51.246Z,3.4
2018-06-24T09:23:52.041Z,3.9
2018-06-24T09:24:52.831Z,3.1
2018-06-24T09:25:53.851Z,2.9
2018-06-24T09:26:55.126Z,2.9
2018-06-24T09:27:55.913Z,3.2
2018-06-24T09:28:56.903Z,2.8
2018-06-24T09:29:58.102Z,3.5
2018-06-24T09:30:59.194Z,2.8
2018-06-24T09:32:00.178Z,2.8
2018-06-24T09:33:01.017Z,3.2
2018-06-24T09:34:02.236Z,3.7
2018-06-24T09:35:03.001Z,4.1
2018-06-24T09:36:04.001Z,3.9
2018-06-24T09:37:05.830Z,3.7
2018-06-24T09:38:07.258Z,4.0
2018-06-24T09:39:08.246Z,2.9
2018-06-24T09:40:09.260Z,3.5
2018-06-24T09:41:10.237Z,3.7
2018-06-24T09:42:11.232Z,3.6
2018-06-24T09:43:12.025Z,3.6
2018-06-24T09:44:12.827Z,3.0
2018-06-24T09:45:13.649Z,3.8
2018-06-24T09:46:14.650Z,3.6
2018-06-24T09:47:15.646Z,4.2
2018-06-24T09:48:16.636Z,3.7
2018-06-24T09:49:18.068Z,3.5
2018-06-24T09:50:19.060Z,3.4
2018-06-24T09:51:20.042Z,3.7
2018-06-24T09:52:21.172Z,3.3
2018-06-24T09:53:21.956Z,3.8
2018-06-24T09:54:23.232Z,3.6
2018-06-24T09:55:24.027Z,2.7
2018-06-24T09:56:24.838Z,4.1
2018-06-24T09:57:25.829Z,3.2
2018-06-24T09:58:26.813Z,2.8
2018-06-24T09:59:28.008Z,3.0
2018-06-24T10:00:28.984Z,3.2
2018-06-24T10:01:30.014Z,2.6
2018-06-24T10:02:31.168Z,2.8
2018-06-24T10:03:32.155Z,2.6
2018-06-24T10:04:32.946Z,2.1
2018-06-24T10:05:34.634Z,2.8
2018-06-24T10:06:35.785Z,2.6
2018-06-24T10:07:36.838Z,3.0
2018-06-24T10:08:37.620Z,3.0
2018-06-24T10:09:38.627Z,3.2
2018-06-24T10:10:39.860Z,2.8
2018-06-24T10:11:40.833Z,3.1
2018-06-24T10:12:41.937Z,3.0
2018-06-24T10:13:42.774Z,3.1
2018-06-24T10:14:43.993Z,3.7
2018-06-24T10:15:45.582Z,3.1
2018-06-24T10:16:46.394Z,3.4
2018-06-24T10:17:47.169Z,3.2
2018-06-24T10:18:47.995Z,2.8
2018-06-24T10:19:49.573Z,2.8
2018-06-24T10:20:50.754Z,2.6
2018-06-24T10:21:51.757Z,2.7
2018-06-24T10:22:52.731Z,2.6
2018-06-24T10:23:53.764Z,3.3
2018-06-24T10:24:54.843Z,2.9
2018-06-24T10:25:55.603Z,3.1
2018-06-24T10:26:56.596Z,3.0
2018-06-24T10:27:58.109Z,2.9
2018-06-24T10:28:59.772Z,3.0
2018-06-24T10:30:01.352Z,2.9
2018-06-24T10:31:02.126Z,2.5
2018-06-24T10:32:02.917Z,2.6
2018-06-24T10:33:04.160Z,2.8
2018-06-24T10:34:04.931Z,3.2
2018-06-24T10:35:05.919Z,2.9
2018-06-24T10:36:06.692Z,2.7
2018-06-24T10:37:08.607Z,3.0
2018-06-24T10:38:09.602Z,2.7
2018-06-24T10:39:10.571Z,2.9
2018-06-24T10:40:11.570Z,2.4
2018-06-24T10:41:12.608Z,2.7
2018-06-24T10:42:13.778Z,2.6
2018-06-24T10:43:14.847Z,2.6
2018-06-24T10:44:15.655Z,2.9
2018-06-24T10:45:16.503Z,3.0
2018-06-24T10:46:17.288Z,3.0
2018-06-24T10:47:18.725Z,3.1
2018-06-24T10:48:19.711Z,3.0
2018-06-24T10:49:20.505Z,3.3
2018-06-24T10:50:21.505Z,3.1
2018-06-24T10:51:22.310Z,2.9
2018-06-24T10:52:23.631Z,2.9
2018-06-24T10:53:24.710Z,2.8
2018-06-24T10:54:25.701Z,3.6
2018-06-24T10:55:26.941Z,3.6
2018-06-24T10:56:27.717Z,3.6
2018-06-24T10:57:28.752Z,3.3
2018-06-24T10:58:29.524Z,3.1
2018-06-24T10:59:30.785Z,3.4
2018-06-24T11:00:31.792Z,2.6
2018-06-24T11:01:32.562Z,2.5
2018-06-24T11:02:33.613Z,2.6
2018-06-24T11:03:34.951Z,3.2
2018-06-24T11:04:36.440Z,2.8
2018-06-24T11:05:37.491Z,2.8
2018-06-24T11:06:38.748Z,3.0
2018-06-24T11:07:39.740Z,2.6
2018-06-24T11:08:40.739Z,2.4
2018-06-24T11:09:41.795Z,2.3
2018-06-24T11:10:42.725Z,1.7
2018-06-24T11:11:43.762Z,2.2
2018-06-24T11:12:44.773Z,1.6
2018-06-24T11:13:45.579Z,1.6
2018-06-24T11:14:46.628Z,1.6
2018-06-24T11:15:47.452Z,1.7
2018-06-24T11:16:48.254Z,2.1
2018-06-24T11:17:49.241Z,1.9
2018-06-24T11:18:50.211Z,2.4
2018-06-24T11:19:51.203Z,2.5
2018-06-24T11:20:52.215Z,2.4
2018-06-24T11:21:53.213Z,2.4
2018-06-24T11:22:54.175Z,2.5
2018-06-24T11:23:54.951Z,2.7
2018-06-24T11:24:55.942Z,3.1
2018-06-24T11:25:57.371Z,2.3
2018-06-24T11:26:58.145Z,2.9
2018-06-24T11:27:59.142Z,2.4
2018-06-24T11:29:00.136Z,3.1
2018-06-24T11:30:01.143Z,3.1
2018-06-24T11:31:02.143Z,3.0
2018-06-24T11:32:03.115Z,2.6
2018-06-24T11:33:03.915Z,2.8
2018-06-24T11:34:04.693Z,2.4
2018-06-24T11:35:05.659Z,3.0
2018-06-24T11:36:06.682Z,3.2
2018-06-24T11:37:07.695Z,3.0
2018-06-24T11:38:08.638Z,2.9
2018-06-24T11:39:09.628Z,3.0
2018-06-24T11:40:10.426Z,2.8
2018-06-24T11:41:11.451Z,2.8
2018-06-24T11:42:12.232Z,2.6
2018-06-24T11:43:13.235Z,2.8
2018-06-24T11:44:14.224Z,3.3
2018-06-24T11:45:15.207Z,2.6
2018-06-24T11:46:16.233Z,2.8
2018-06-24T11:47:17.214Z,3.3
2018-06-24T11:48:17.998Z,2.9
2018-06-24T11:49:19.000Z,3.0
2018-06-24T11:50:19.814Z,3.5
2018-06-24T11:51:20.808Z,3.1
2018-06-24T11:52:21.603Z,3.9
2018-06-24T11:53:22.411Z,3.4
2018-06-24T11:54:23.404Z,3.4
2018-06-24T11:55:24.187Z,3.3
2018-06-24T11:56:24.966Z,3.1
2018-06-24T11:57:26.208Z,3.4
2018-06-24T11:58:27.610Z,4.0
2018-06-24T11:59:28.848Z,3.4
2018-06-24T12:00:30.162Z,3.8
2018-06-24T12:01:31.154Z,3.4
2018-06-24T12:02:32.199Z,3.6
2018-06-24T12:03:33.265Z,3.7
2018-06-24T12:04:34.227Z,3.6
2018-06-24T12:05:35.018Z,3.7
2018-06-24T12:06:35.813Z,4.3
2018-06-24T12:07:36.615Z,3.9
2018-06-24T12:08:37.464Z,4.2
2018-06-24T12:09:38.277Z,4.0
2018-06-24T12:10:39.078Z,3.9
2018-06-24T12:11:40.137Z,4.1
2018-06-24T12:12:41.421Z,4.0
2018-06-24T12:13:42.449Z,3.7
2018-06-24T12:14:43.449Z,3.8
2018-06-24T12:15:44.816Z,4.0
2018-06-24T12:16:46.078Z,4.1
2018-06-24T12:17:47.092Z,3.9
2018-06-24T12:18:48.341Z,4.3
2018-06-24T12:19:49.127Z,4.4
2018-06-24T12:20:50.163Z,4.6
2018-06-24T12:21:51.165Z,4.6
2018-06-24T12:22:52.076Z,4.3
2018-06-24T12:23:53.065Z,4.7
2018-06-24T12:24:54.326Z,5.5
2018-06-24T12:25:55.625Z,4.2
2018-06-24T12:26:56.411Z,3.9
2018-06-24T12:27:57.401Z,4.8
2018-06-24T12:28:58.767Z,3.9
2018-06-24T12:29:59.757Z,4.0
2018-06-24T12:31:00.730Z,3.5
2018-06-24T12:32:01.728Z,4.0
2018-06-24T12:33:02.511Z,4.5
2018-06-24T12:34:03.534Z,4.0
2018-06-24T12:35:04.375Z,3.9
2018-06-24T12:36:05.411Z,4.5
2018-06-24T12:37:06.344Z,3.8
2018-06-24T12:38:07.329Z,4.5
2018-06-24T12:39:08.310Z,3.6
2018-06-24T12:40:09.307Z,3.7
2018-06-24T12:41:10.338Z,3.6
2018-06-24T12:42:11.339Z,3.8
2018-06-24T12:43:12.109Z,3.4
2018-06-24T12:44:13.090Z,4.1
2018-06-24T12:45:14.081Z,3.6
2018-06-24T12:46:15.148Z,4.3
2018-06-24T12:47:16.132Z,3.8
2018-06-24T12:48:17.147Z,4.1
2018-06-24T12:49:18.141Z,4.1
2018-06-24T12:50:18.943Z,3.8
2018-06-24T12:51:19.777Z,3.9
2018-06-24T12:52:20.559Z,4.6
2018-06-24T12:53:21.361Z,3.8
2018-06-24T12:54:22.522Z,4.2
2018-06-24T12:55:25.351Z,4.7
2018-06-24T12:56:26.833Z,4.8
2018-06-24T12:57:27.837Z,4.9
2018-06-24T12:58:29.112Z,4.9
2018-06-24T12:59:29.956Z,6.4
2018-06-24T13:00:31.734Z,6.3
2018-06-24T13:01:32.319Z,5.7
2018-06-24T13:02:34.219Z,6.3
2018-06-24T13:03:35.983Z,7.3
2018-06-24T13:04:37.120Z,8.3
2018-06-24T13:05:37.940Z,7.1
2018-06-24T13:06:38.807Z,7.8
2018-06-24T13:07:39.877Z,8.1
2018-06-24T13:08:40.672Z,8.2
2018-06-24T13:09:41.681Z,8.9
2018-06-24T13:10:42.472Z,8.0
2018-06-24T13:11:43.279Z,7.9
2018-06-24T13:12:44.299Z,8.6
2018-06-24T13:13:45.326Z,8.8
2018-06-24T13:14:46.327Z,8.8
2018-06-24T13:15:47.330Z,8.7
2018-06-24T13:16:48.353Z,7.8
2018-06-24T13:17:49.123Z,8.4
2018-06-24T13:18:50.458Z,8.5
2018-06-24T13:19:51.771Z,8.1
2018-06-24T13:20:52.708Z,8.3
2018-06-24T13:21:53.508Z,8.9
2018-06-24T13:22:54.324Z,8.6
2018-06-24T13:23:55.116Z,9.4
2018-06-24T13:24:55.899Z,9.6
2018-06-24T13:25:56.890Z,10.4
2018-06-24T13:26:57.862Z,9.8
2018-06-24T13:27:58.854Z,9.4
2018-06-24T13:28:59.899Z,9.8
2018-06-24T13:30:00.893Z,9.9
2018-06-24T13:31:01.894Z,10.0
2018-06-24T13:32:02.698Z,9.2
2018-06-24T13:33:03.478Z,9.5
2018-06-24T13:34:04.795Z,8.9
2018-06-24T13:35:05.574Z,7.9
2018-06-24T13:36:06.361Z,8.5
2018-06-24T13:37:07.355Z,8.0
2018-06-24T13:38:08.343Z,7.7
2018-06-24T13:39:09.575Z,8.0
2018-06-24T13:40:10.585Z,7.7
2018-06-24T13:41:11.597Z,8.4
2018-06-24T13:42:13.100Z,8.3
2018-06-24T13:43:13.878Z,8.7
2018-06-24T13:44:14.675Z,8.3
2018-06-24T13:45:15.706Z,8.7
2018-06-24T13:46:16.505Z,9.4
2018-06-24T13:47:17.516Z,9.1
2018-06-24T13:48:18.756Z,9.5
2018-06-24T13:49:19.967Z,8.9
2018-06-24T13:50:20.745Z,8.3
2018-06-24T13:51:21.564Z,8.6
2018-06-24T13:52:22.621Z,8.6
2018-06-24T13:53:23.718Z,9.2
2018-06-24T13:54:24.707Z,9.1
2018-06-24T13:55:25.718Z,8.8
2018-06-24T13:56:26.699Z,9.8
2018-06-24T13:57:28.243Z,9.8
2018-06-24T13:58:29.522Z,9.2
2018-06-24T13:59:30.500Z,9.3